Time;durP1;ratioP1;P1;durP2;ratioP2;P2;SDS_P1;SDS_P2;PMS_P1;PMS_P2;Temp;Humidity;BMP_temperature;BMP_pressure;BME280_temperature;BME280_humidity;BME280_pressure;Samples;Min_cycle;Max_cycle;Signal;HPM_P1;HPM_P2
2023/03/29 00:00:13;;;;;;;13.00;2.60;;;;;;;;;;6143166;23;20164;-89
2023/03/29 00:03:44;;;;;;;10.10;2.70;;;;;;;;;;6143536;23;20200;-91
2023/03/29 00:06:50;;;;;;;9.27;2.30;;;;;;;;;;6143215;23;20291;-89
2023/03/29 00:09:56;;;;;;;6.30;2.73;;;;;;;;;;6144472;23;20296;-90
2023/03/29 00:13:02;;;;;;;7.87;2.70;;;;;;;;;;6143156;23;20169;-88
2023/03/29 00:16:07;;;;;;;7.73;2.57;;;;;;;;;;6142679;23;20192;-89
2023/03/29 00:19:12;;;;;;;12.47;2.60;;;;;;;;;;6141977;23;20620;-89
2023/03/29 00:22:20;;;;;;;7.83;2.27;;;;;;;;;;6141341;23;20165;-89
2023/03/29 00:25:25;;;;;;;11.47;2.67;;;;;;;;;;6141443;23;20168;-90
2023/03/29 00:28:30;;;;;;;8.63;2.60;;;;;;;;;;6141250;23;20164;-88
2023/03/29 00:31:34;;;;;;;6.80;2.33;;;;;;;;;;6140260;23;20244;-90
2023/03/29 00:34:41;;;;;;;9.70;2.90;;;;;;;;;;6141601;23;20191;-90
2023/03/29 00:37:51;;;;;;;5.77;2.30;;;;;;;;;;6141918;23;20180;-91
2023/03/29 00:40:56;;;;;;;6.30;3.03;;;;;;;;;;6141592;23;20172;-89
2023/03/29 00:44:06;;;;;;;15.60;3.97;;;;;;;;;;6142444;23;20172;-92
2023/03/29 00:47:10;;;;;;;8.97;2.90;;;;;;;;;;6141239;23;20168;-93
2023/03/29 00:50:21;;;;;;;7.57;2.73;;;;;;;;;;6141747;23;20181;-88
2023/03/29 00:53:32;;;;;;;7.37;2.83;;;;;;;;;;6141439;23;20180;-91
2023/03/29 00:56:39;;;;;;;6.47;2.43;;;;;;;;;;6141033;23;20211;-90
2023/03/29 00:59:46;;;;;;;8.70;2.53;;;;;;;;;;6141264;23;20173;-91
2023/03/29 01:02:52;;;;;;;8.17;2.50;;;;;;;;;;6142686;23;20168;-92
2023/03/29 01:06:00;;;;;;;7.83;2.93;;;;;;;;;;6141950;23;20639;-90
2023/03/29 01:09:09;;;;;;;7.47;2.40;;;;;;;;;;6142911;23;20249;-91
2023/03/29 01:12:17;;;;;;;9.50;2.60;;;;;;;;;;6142794;23;20172;-91
2023/03/29 01:15:27;;;;;;;8.03;2.80;;;;;;;;;;6142492;23;20532;-90
2023/03/29 01:18:32;;;;;;;9.67;2.70;;;;;;;;;;6143226;23;20251;-89
2023/03/29 01:22:04;;;;;;;8.47;2.80;;;;;;;;;;6142147;23;20172;-91
2023/03/29 01:25:14;;;;;;;7.43;3.03;;;;;;;;;;6143351;23;20176;-91
2023/03/29 01:28:22;;;;;;;7.27;2.90;;;;;;;;;;6142815;23;20501;-91
2023/03/29 01:31:28;;;;;;;10.33;2.53;;;;;;;;;;6143008;23;20611;-90
2023/03/29 01:34:36;;;;;;;9.47;2.60;;;;;;;;;;6142778;23;20173;-89
2023/03/29 01:37:42;;;;;;;7.63;2.53;;;;;;;;;;6142972;23;20172;-91
2023/03/29 01:40:47;;;;;;;8.40;2.90;;;;;;;;;;6144929;23;20632;-89
2023/03/29 01:43:57;;;;;;;11.23;2.90;;;;;;;;;;6144539;23;20236;-93
2023/03/29 01:47:08;;;;;;;9.17;2.93;;;;;;;;;;6143704;23;20220;-90
2023/03/29 01:50:15;;;;;;;6.60;2.60;;;;;;;;;;6144285;23;20488;-90
2023/03/29 01:53:23;;;;;;;9.63;3.10;;;;;;;;;;6144409;23;20208;-90
2023/03/29 01:56:29;;;;;;;10.87;2.53;;;;;;;;;;6143295;23;20200;-89
2023/03/29 01:59:37;;;;;;;10.77;3.20;;;;;;;;;;6144553;23;20172;-88
2023/03/29 02:06:17;;;;;;;11.67;4.23;;;;;;;;;;6144459;23;20173;-89
2023/03/29 02:09:23;;;;;;;11.50;3.40;;;;;;;;;;6143192;23;20647;-90
2023/03/29 02:12:28;;;;;;;13.20;4.17;;;;;;;;;;6143943;23;20187;-87
2023/03/29 02:15:36;;;;;;;17.07;3.10;;;;;;;;;;6142129;23;20176;-87
2023/03/29 02:18:42;;;;;;;8.63;2.73;;;;;;;;;;6143003;23;20608;-89
2023/03/29 02:22:00;;;;;;;7.63;2.40;;;;;;;;;;6143266;23;20238;-89
2023/03/29 02:25:07;;;;;;;10.33;3.07;;;;;;;;;;6143209;23;20172;-89
2023/03/29 02:28:12;;;;;;;7.23;2.77;;;;;;;;;;6142997;23;20184;-91
2023/03/29 02:31:21;;;;;;;9.90;3.97;;;;;;;;;;6143074;23;20172;-91
2023/03/29 02:34:30;;;;;;;11.23;3.20;;;;;;;;;;6141920;23;20694;-89
2023/03/29 02:37:39;;;;;;;10.47;3.03;;;;;;;;;;6143782;23;20199;-90
2023/03/29 02:40:47;;;;;;;13.77;3.13;;;;;;;;;;6144627;23;20207;-89
2023/03/29 02:43:54;;;;;;;9.70;3.13;;;;;;;;;;6144467;23;20171;-90
2023/03/29 02:47:03;;;;;;;4.97;2.07;;;;;;;;;;6143677;23;20175;-88
2023/03/29 02:50:09;;;;;;;9.83;2.80;;;;;;;;;;6142229;23;20173;-91
2023/03/29 02:53:16;;;;;;;7.70;2.63;;;;;;;;;;6143028;23;20629;-90
2023/03/29 02:56:22;;;;;;;11.87;4.83;;;;;;;;;;6141943;23;20246;-91
2023/03/29 02:59:28;;;;;;;7.77;2.70;;;;;;;;;;6143277;23;20172;-89
2023/03/29 03:02:37;;;;;;;8.43;2.57;;;;;;;;;;6142955;23;20283;-90
2023/03/29 03:05:43;;;;;;;8.70;3.07;;;;;;;;;;6142889;23;20187;-90
2023/03/29 03:08:49;;;;;;;6.13;3.03;;;;;;;;;;6143124;23;20171;-88
2023/03/29 03:11:54;;;;;;;10.47;3.20;;;;;;;;;;6143422;23;20218;-89
2023/03/29 03:15:00;;;;;;;7.43;2.57;;;;;;;;;;6142339;23;20177;-89
2023/03/29 03:18:08;;;;;;;10.97;2.87;;;;;;;;;;6141047;23;20226;-91
2023/03/29 03:21:39;;;;;;;11.03;3.17;;;;;;;;;;6141771;23;20172;-90
2023/03/29 03:24:45;;;;;;;13.17;3.20;;;;;;;;;;6143706;23;20211;-92
2023/03/29 03:27:51;;;;;;;8.70;3.00;;;;;;;;;;6143346;23;20176;-91
2023/03/29 03:30:59;;;;;;;9.90;3.03;;;;;;;;;;6142293;23;20172;-89
2023/03/29 03:34:26;;;;;;;15.87;3.17;;;;;;;;;;6159851;23;20275;-89
2023/03/29 03:37:35;;;;;;;10.73;3.53;;;;;;;;;;6142806;23;20192;-90
2023/03/29 03:40:40;;;;;;;9.33;2.70;;;;;;;;;;6142606;23;20176;-91
2023/03/29 03:43:47;;;;;;;10.87;3.00;;;;;;;;;;6143780;23;20194;-90
2023/03/29 03:46:52;;;;;;;12.77;2.87;;;;;;;;;;6142417;23;20180;-91
2023/03/29 03:49:59;;;;;;;9.67;2.50;;;;;;;;;;6142436;23;20172;-90
2023/03/29 03:53:04;;;;;;;7.13;2.50;;;;;;;;;;6145494;23;20215;-91
2023/03/29 03:56:29;;;;;;;11.40;2.87;;;;;;;;;;6162821;23;20192;-90
2023/03/29 04:00:17;;;;;;;8.67;2.50;;;;;;;;;;6161498;23;20627;-89
2023/03/29 04:07:04;;;;;;;8.47;2.40;;;;;;;;;;6142355;23;20212;-89
2023/03/29 04:10:35;;;;;;;13.33;2.83;;;;;;;;;;6143435;23;20173;-90
2023/03/29 04:13:47;;;;;;;10.33;2.37;;;;;;;;;;6143773;23;20176;-90
2023/03/29 04:17:03;;;;;;;9.60;2.53;;;;;;;;;;6144059;23;20204;-90
2023/03/29 04:21:18;;;;;;;5.33;2.80;;;;;;;;;;6162737;23;20193;-89
2023/03/29 04:24:24;;;;;;;6.67;2.50;;;;;;;;;;6146523;23;20254;-90
2023/03/29 04:27:50;;;;;;;5.30;2.53;;;;;;;;;;6164788;23;20288;-90
2023/03/29 04:31:22;;;;;;;7.13;2.50;;;;;;;;;;6145041;23;20172;-89
2023/03/29 04:34:43;;;;;;;9.23;2.80;;;;;;;;;;6146259;23;20169;-90
2023/03/29 04:37:49;;;;;;;6.37;2.67;;;;;;;;;;6146534;23;20750;-89
2023/03/29 04:40:57;;;;;;;6.43;2.33;;;;;;;;;;6145908;23;20173;-91
2023/03/29 04:44:42;;;;;;;9.33;3.33;;;;;;;;;;6163838;23;20173;-89
2023/03/29 04:47:49;;;;;;;9.70;3.10;;;;;;;;;;6145122;23;20169;-89
2023/03/29 04:50:57;;;;;;;5.60;2.93;;;;;;;;;;6145830;23;20176;-88
2023/03/29 04:54:02;;;;;;;13.17;3.10;;;;;;;;;;6146653;23;20196;-89
2023/03/29 04:57:09;;;;;;;14.33;3.53;;;;;;;;;;6146041;23;20261;-88
2023/03/29 05:00:19;;;;;;;8.27;3.47;;;;;;;;;;6165161;23;20173;-88
2023/03/29 05:03:45;;;;;;;9.93;3.60;;;;;;;;;;6164891;23;20165;-91
2023/03/29 05:07:01;;;;;;;8.27;3.47;;;;;;;;;;6147694;23;20165;-90
2023/03/29 05:10:08;;;;;;;8.97;3.97;;;;;;;;;;6148060;23;20168;-90
2023/03/29 05:13:15;;;;;;;12.47;5.07;;;;;;;;;;6145229;23;20183;-89
2023/03/29 05:16:20;;;;;;;11.73;3.43;;;;;;;;;;6144576;23;20177;-91
2023/03/29 05:19:26;;;;;;;16.33;3.90;;;;;;;;;;6144847;23;20177;-91
2023/03/29 05:22:32;;;;;;;12.83;4.03;;;;;;;;;;6144263;23;20183;-90
2023/03/29 05:25:37;;;;;;;12.57;4.27;;;;;;;;;;6146756;23;20176;-89
2023/03/29 05:28:58;;;;;;;8.73;3.93;;;;;;;;;;6130869;23;20235;-88
2023/03/29 05:32:06;;;;;;;7.60;3.50;;;;;;;;;;6148220;23;20173;-89
2023/03/29 05:35:12;;;;;;;9.13;3.70;;;;;;;;;;6149435;23;20181;-90
2023/03/29 05:38:17;;;;;;;10.97;3.53;;;;;;;;;;6147915;23;20196;-90
2023/03/29 05:41:24;;;;;;;13.43;3.77;;;;;;;;;;6150089;23;20288;-89
2023/03/29 05:45:01;;;;;;;9.77;3.83;;;;;;;;;;6165345;23;20200;-90
2023/03/29 05:48:09;;;;;;;6.33;3.33;;;;;;;;;;6146083;23;20173;-90
2023/03/29 05:51:17;;;;;;;9.13;4.03;;;;;;;;;;6143908;23;20173;-89
2023/03/29 05:54:23;;;;;;;11.33;3.73;;;;;;;;;;6144323;23;20197;-90
2023/03/29 05:57:29;;;;;;;12.47;4.07;;;;;;;;;;6145617;23;20204;-90
2023/03/29 06:00:35;;;;;;;10.67;3.97;;;;;;;;;;6146522;23;20593;-90
2023/03/29 06:03:57;;;;;;;6.47;3.60;;;;;;;;;;6147225;23;20176;-89
2023/03/29 06:07:11;;;;;;;31.07;10.57;;;;;;;;;;6144919;23;20172;-92
2023/03/29 06:10:19;;;;;;;17.37;5.53;;;;;;;;;;6145715;23;20180;-89
2023/03/29 06:13:28;;;;;;;8.40;3.63;;;;;;;;;;6144930;23;20169;-90
2023/03/29 06:16:43;;;;;;;12.17;4.60;;;;;;;;;;6146474;23;20228;-89
2023/03/29 06:19:52;;;;;;;14.37;3.93;;;;;;;;;;6145524;23;20230;-90
2023/03/29 06:23:04;;;;;;;11.30;4.70;;;;;;;;;;6146459;23;20168;-89
2023/03/29 06:26:11;;;;;;;7.87;3.60;;;;;;;;;;6146050;23;20215;-89
2023/03/29 06:29:18;;;;;;;19.70;7.13;;;;;;;;;;6143053;23;20180;-89
2023/03/29 06:32:25;;;;;;;8.23;3.63;;;;;;;;;;6143584;23;20177;-90
2023/03/29 06:35:43;;;;;;;16.43;4.47;;;;;;;;;;6144471;23;20196;-90
2023/03/29 06:38:52;;;;;;;8.60;3.83;;;;;;;;;;6143285;23;20193;-92
2023/03/29 06:42:32;;;;;;;10.67;4.43;;;;;;;;;;6143855;23;20177;-89
2023/03/29 06:45:58;;;;;;;10.67;4.90;;;;;;;;;;6163408;23;20168;-91
2023/03/29 06:49:10;;;;;;;7.90;3.90;;;;;;;;;;6145494;23;20171;-89
2023/03/29 06:52:27;;;;;;;8.50;3.90;;;;;;;;;;6146717;23;20177;-91
2023/03/29 06:55:33;;;;;;;9.07;3.80;;;;;;;;;;6158892;23;20219;-92
2023/03/29 06:58:48;;;;;;;12.73;3.90;;;;;;;;;;6141763;23;20193;-91
2023/03/29 07:02:12;;;;;;;9.63;4.17;;;;;;;;;;6140158;23;20274;-88
2023/03/29 07:05:26;;;;;;;10.40;4.73;;;;;;;;;;6141442;23;20223;-91
2023/03/29 07:08:34;;;;;;;7.33;3.70;;;;;;;;;;6143893;23;20291;-89
2023/03/29 07:11:41;;;;;;;11.20;4.50;;;;;;;;;;6142931;23;20246;-89
2023/03/29 07:14:57;;;;;;;12.43;5.03;;;;;;;;;;6143042;23;20605;-90
2023/03/29 07:18:06;;;;;;;9.07;4.03;;;;;;;;;;6143194;23;20208;-90
2023/03/29 07:21:16;;;;;;;9.33;3.97;;;;;;;;;;6142206;23;20238;-91
2023/03/29 07:24:23;;;;;;;7.40;4.13;;;;;;;;;;6142765;23;20240;-90
2023/03/29 07:27:28;;;;;;;10.37;5.00;;;;;;;;;;6143428;23;20168;-91
2023/03/29 07:30:33;;;;;;;9.90;4.80;;;;;;;;;;6143490;23;20207;-89
2023/03/29 07:33:59;;;;;;;10.27;3.87;;;;;;;;;;6142742;23;20246;-89
2023/03/29 07:37:08;;;;;;;12.67;4.30;;;;;;;;;;6145020;23;22147;-90
2023/03/29 07:40:17;;;;;;;11.97;4.40;;;;;;;;;;6142743;23;20207;-90
2023/03/29 07:43:45;;;;;;;5.80;3.53;;;;;;;;;;6133484;23;20188;-89
2023/03/29 07:46:53;;;;;;;6.50;4.03;;;;;;;;;;6141829;23;20224;-88
2023/03/29 07:49:58;;;;;;;10.50;4.50;;;;;;;;;;6143144;23;20172;-88
2023/03/29 07:53:03;;;;;;;11.33;4.37;;;;;;;;;;6142240;23;20192;-90
2023/03/29 07:56:13;;;;;;;8.40;4.37;;;;;;;;;;6141512;23;20637;-90
2023/03/29 07:59:38;;;;;;;7.80;3.57;;;;;;;;;;6159589;23;20207;-90
2023/03/29 08:02:51;;;;;;;7.03;3.40;;;;;;;;;;6142943;23;20164;-89
2023/03/29 08:05:56;;;;;;;10.43;5.30;;;;;;;;;;6142648;23;20591;-87
2023/03/29 08:09:03;;;;;;;9.07;4.30;;;;;;;;;;6142303;23;20499;-91
2023/03/29 08:12:09;;;;;;;8.17;3.87;;;;;;;;;;6140858;23;20234;-89
2023/03/29 08:15:16;;;;;;;9.97;4.10;;;;;;;;;;6141413;23;20243;-89
2023/03/29 08:18:22;;;;;;;7.27;3.30;;;;;;;;;;6144207;23;20222;-89
2023/03/29 08:21:54;;;;;;;6.20;3.60;;;;;;;;;;6145632;23;20165;-89
2023/03/29 08:25:03;;;;;;;9.50;3.60;;;;;;;;;;6145220;23;20164;-89
2023/03/29 08:28:13;;;;;;;9.27;3.60;;;;;;;;;;6143047;23;20169;-90
2023/03/29 08:31:23;;;;;;;8.77;3.60;;;;;;;;;;6145024;23;20168;-91
2023/03/29 08:34:30;;;;;;;7.63;3.60;;;;;;;;;;6145913;23;20177;-90
2023/03/29 08:37:36;;;;;;;6.77;3.43;;;;;;;;;;6162970;23;20275;-92
2023/03/29 08:40:41;;;;;;;9.10;3.90;;;;;;;;;;6144734;23;20212;-90
2023/03/29 08:44:10;;;;;;;7.67;3.70;;;;;;;;;;6143601;23;20195;-91
2023/03/29 08:47:31;;;;;;;5.27;3.60;;;;;;;;;;6143515;23;20200;-92
2023/03/29 08:50:39;;;;;;;8.97;4.00;;;;;;;;;;6143393;23;20169;-92
2023/03/29 08:53:47;;;;;;;6.97;3.70;;;;;;;;;;6143422;23;20193;-90
2023/03/29 08:57:02;;;;;;;8.90;3.63;;;;;;;;;;6143736;23;20173;-91
2023/03/29 09:00:10;;;;;;;8.07;3.50;;;;;;;;;;6147057;23;20615;-90
2023/03/29 09:03:22;;;;;;;6.93;3.50;;;;;;;;;;6147814;23;20183;-90
2023/03/29 09:06:28;;;;;;;6.13;3.70;;;;;;;;;;6147630;23;20226;-90
2023/03/29 09:09:45;;;;;;;8.40;4.30;;;;;;;;;;6144400;23;20185;-90
2023/03/29 09:13:10;;;;;;;9.70;3.50;;;;;;;;;;6145674;23;20173;-90
2023/03/29 09:16:22;;;;;;;8.37;3.40;;;;;;;;;;6144495;23;20224;-92
2023/03/29 09:19:32;;;;;;;5.83;3.20;;;;;;;;;;6145609;23;20196;-91
2023/03/29 09:22:45;;;;;;;12.47;4.27;;;;;;;;;;6144395;23;20168;-91
2023/03/29 09:25:56;;;;;;;9.17;3.47;;;;;;;;;;6146631;23;20168;-90
2023/03/29 09:29:17;;;;;;;7.47;3.27;;;;;;;;;;6146971;23;20247;-90
2023/03/29 09:32:23;;;;;;;8.63;3.63;;;;;;;;;;6146287;23;20177;-90
2023/03/29 09:35:38;;;;;;;6.77;3.37;;;;;;;;;;6145609;23;20168;-91
2023/03/29 09:38:49;;;;;;;9.03;3.50;;;;;;;;;;6148425;23;20203;-90
2023/03/29 09:41:58;;;;;;;7.10;3.60;;;;;;;;;;6145305;23;20173;-89
2023/03/29 09:45:07;;;;;;;7.97;4.50;;;;;;;;;;6147212;23;20549;-90
2023/03/29 09:48:19;;;;;;;7.03;3.23;;;;;;;;;;6146457;23;20168;-89
2023/03/29 09:51:30;;;;;;;8.50;3.83;;;;;;;;;;6146032;23;20160;-90
2023/03/29 09:54:36;;;;;;;6.73;3.17;;;;;;;;;;6146019;23;20260;-90
2023/03/29 09:58:15;;;;;;;19.07;9.10;;;;;;;;;;6162981;23;20208;-89
2023/03/29 10:05:17;;;;;;;7.13;3.60;;;;;;;;;;6147474;23;20169;-90
2023/03/29 10:08:25;;;;;;;6.30;3.50;;;;;;;;;;6145844;23;20172;-91
2023/03/29 10:11:34;;;;;;;6.40;3.33;;;;;;;;;;6146971;23;20612;-90
2023/03/29 10:14:42;;;;;;;6.27;3.37;;;;;;;;;;6145659;23;20169;-90
2023/03/29 10:17:47;;;;;;;5.80;3.30;;;;;;;;;;6147904;23;20157;-89
2023/03/29 10:20:58;;;;;;;8.73;3.20;;;;;;;;;;6146654;23;20288;-92
2023/03/29 10:24:03;;;;;;;6.57;2.67;;;;;;;;;;6146983;23;20169;-90
2023/03/29 10:27:11;;;;;;;6.57;3.40;;;;;;;;;;6146265;23;20172;-91
2023/03/29 10:30:21;;;;;;;5.17;3.23;;;;;;;;;;6146123;23;20173;-89
2023/03/29 10:33:30;;;;;;;5.20;3.20;;;;;;;;;;6146502;23;20176;-90
2023/03/29 10:36:35;;;;;;;6.00;3.07;;;;;;;;;;6146346;23;20168;-93
2023/03/29 10:39:42;;;;;;;6.32;3.47;;;;;;;;;;6146750;23;20192;-90
2023/03/29 10:42:50;;;;;;;9.37;3.83;;;;;;;;;;6145241;23;20163;-90
2023/03/29 10:46:00;;;;;;;7.45;3.42;;;;;;;;;;6144408;23;20177;-89
2023/03/29 10:49:09;;;;;;;7.18;3.60;;;;;;;;;;6147642;23;20153;-91
2023/03/29 10:52:15;;;;;;;5.35;3.25;;;;;;;;;;6147688;23;20165;-92
2023/03/29 10:55:21;;;;;;;6.88;3.50;;;;;;;;;;6145626;23;20177;-90
2023/03/29 10:58:38;;;;;;;10.27;4.20;;;;;;;;;;6147008;23;20196;-92
2023/03/29 11:01:47;;;;;;;6.18;3.78;;;;;;;;;;6146266;23;20195;-89
2023/03/29 11:04:57;;;;;;;10.30;4.13;;;;;;;;;;6147208;23;20169;-91
2023/03/29 13:05:32;;;;;;;9.98;3.97;;;;;;;;;;6161680;23;20291;-89
2023/03/29 13:08:38;;;;;;;10.77;4.05;;;;;;;;;;6174151;23;20188;-90
2023/03/29 13:11:43;;;;;;;9.48;4.93;;;;;;;;;;6175355;23;20144;-90
2023/03/29 13:14:51;;;;;;;10.68;4.38;;;;;;;;;;6176667;23;20501;-90
2023/03/29 13:17:59;;;;;;;11.40;4.53;;;;;;;;;;6174952;23;20217;-90
2023/03/29 13:21:12;;;;;;;9.18;4.63;;;;;;;;;;6173151;23;20168;-89
2023/03/29 13:24:26;;;;;;;12.00;5.22;;;;;;;;;;6174060;23;20176;-92
2023/03/29 13:27:41;;;;;;;8.80;4.70;;;;;;;;;;6178561;23;20171;-91
2023/03/29 13:30:49;;;;;;;9.48;4.65;;;;;;;;;;6159346;23;20491;-90
2023/03/29 13:34:04;;;;;;;9.27;4.80;;;;;;;;;;6175153;23;20211;-91
2023/03/29 13:37:20;;;;;;;11.23;5.00;;;;;;;;;;6178999;23;20175;-90
2023/03/29 13:40:29;;;;;;;9.85;4.72;;;;;;;;;;6170824;23;20180;-90
2023/03/29 13:43:36;;;;;;;9.25;4.53;;;;;;;;;;6171956;23;20491;-91
2023/03/29 13:46:41;;;;;;;9.93;4.63;;;;;;;;;;6170992;23;20254;-92
2023/03/29 13:49:49;;;;;;;15.10;5.30;;;;;;;;;;6171201;23;20196;-91
2023/03/29 13:52:59;;;;;;;10.05;4.93;;;;;;;;;;6169612;23;20546;-89
2023/03/29 13:56:06;;;;;;;9.88;4.90;;;;;;;;;;6169406;23;20660;-91
2023/03/29 13:59:14;;;;;;;12.65;5.55;;;;;;;;;;6172836;23;20184;-88
2023/03/29 14:02:25;;;;;;;8.20;4.63;;;;;;;;;;6169571;23;20168;-91
2023/03/29 14:05:33;;;;;;;11.15;5.35;;;;;;;;;;6174896;23;20191;-90
2023/03/29 16:47:12;;;;;;;14.30;6.15;;;;;;;;;;6184020;22;20232;-89
2023/03/29 16:50:22;;;;;;;14.65;6.15;;;;;;;;;;6199056;23;20198;-91
2023/03/29 16:53:29;;;;;;;15.57;6.50;;;;;;;;;;6197510;23;20665;-91
2023/03/29 16:56:35;;;;;;;15.43;6.35;;;;;;;;;;6192807;23;20168;-90
2023/03/29 16:59:43;;;;;;;15.55;5.38;;;;;;;;;;6193041;23;20305;-89
2023/03/29 17:02:51;;;;;;;12.73;5.90;;;;;;;;;;6191687;23;20175;-88
2023/03/29 17:05:58;;;;;;;11.30;5.63;;;;;;;;;;6194414;23;20273;-92
2023/03/29 17:09:03;;;;;;;14.15;6.85;;;;;;;;;;6194851;23;20240;-88
2023/03/29 17:12:08;;;;;;;16.85;6.97;;;;;;;;;;6192415;23;20164;-91
2023/03/29 17:15:13;;;;;;;12.90;6.68;;;;;;;;;;6174117;23;20637;-89
2023/03/29 17:18:20;;;;;;;14.30;7.18;;;;;;;;;;6189878;23;20171;-89
2023/03/29 17:24:58;;;;;;;15.52;7.72;;;;;;;;;;6192099;23;20209;-90
2023/03/29 17:28:03;;;;;;;12.80;7.40;;;;;;;;;;6191852;23;20172;-92
2023/03/29 17:31:08;;;;;;;11.60;6.65;;;;;;;;;;6176909;23;20253;-88
2023/03/29 17:34:16;;;;;;;13.63;7.60;;;;;;;;;;6191804;23;20148;-89
2023/03/29 17:37:21;;;;;;;20.90;9.13;;;;;;;;;;6175097;23;20180;-89
2023/03/29 17:40:26;;;;;;;17.17;7.28;;;;;;;;;;6192651;23;20220;-88
2023/03/29 17:43:31;;;;;;;13.93;6.72;;;;;;;;;;6193627;23;20168;-89
2023/03/29 17:46:37;;;;;;;15.38;6.95;;;;;;;;;;6191339;23;20188;-88
2023/03/29 17:49:43;;;;;;;19.95;7.07;;;;;;;;;;6192360;23;20202;-87
2023/03/29 17:52:49;;;;;;;13.80;7.15;;;;;;;;;;6192695;23;20168;-89
2023/03/29 17:55:54;;;;;;;17.88;8.10;;;;;;;;;;6192407;23;20287;-89
2023/03/29 17:58:59;;;;;;;18.10;7.90;;;;;;;;;;6194058;23;20194;-89
2023/03/29 18:05:55;;;;;;;21.77;10.45;;;;;;;;;;6174364;23;20164;-88
2023/03/29 18:09:01;;;;;;;22.05;9.48;;;;;;;;;;6173574;23;20291;-92
2023/03/29 18:12:07;;;;;;;34.55;15.38;;;;;;;;;;6175194;23;20195;-87
2023/03/29 18:15:12;;;;;;;21.15;9.85;;;;;;;;;;6172999;23;20163;-90
2023/03/29 18:18:17;;;;;;;23.50;8.13;;;;;;;;;;6194047;23;20194;-88
2023/03/29 18:21:41;;;;;;;22.05;10.35;;;;;;;;;;6175656;23;20179;-90
2023/03/29 18:24:48;;;;;;;23.45;9.90;;;;;;;;;;6175346;23;20259;-88
2023/03/29 18:27:53;;;;;;;23.77;10.60;;;;;;;;;;6193514;23;20249;-90
2023/03/29 18:30:58;;;;;;;19.85;9.30;;;;;;;;;;6174837;23;20261;-90
2023/03/29 18:34:03;;;;;;;19.58;10.15;;;;;;;;;;6192468;23;20160;-90
2023/03/29 18:37:16;;;;;;;22.25;9.32;;;;;;;;;;6181481;23;20230;-89
2023/03/29 18:40:23;;;;;;;20.65;8.57;;;;;;;;;;6199098;23;20172;-90
2023/03/29 18:43:28;;;;;;;17.88;8.93;;;;;;;;;;6193478;23;20167;-90
2023/03/29 18:46:33;;;;;;;18.50;9.75;;;;;;;;;;6192586;23;20191;-87
2023/03/29 18:49:39;;;;;;;22.60;9.13;;;;;;;;;;6196283;23;20199;-89
2023/03/29 18:52:45;;;;;;;17.00;9.25;;;;;;;;;;6178273;23;20254;-92
2023/03/29 18:55:51;;;;;;;18.60;9.05;;;;;;;;;;6195087;23;20164;-89
2023/03/29 18:58:56;;;;;;;18.52;8.70;;;;;;;;;;6193901;23;20164;-87
2023/03/29 19:02:43;;;;;;;24.23;10.52;;;;;;;;;;6191698;23;20164;-88
2023/03/29 19:05:53;;;;;;;23.05;10.20;;;;;;;;;;6179361;23;20302;-89
2023/03/29 19:09:03;;;;;;;19.65;9.65;;;;;;;;;;6180567;23;20171;-91
2023/03/29 19:12:08;;;;;;;23.95;10.85;;;;;;;;;;6195386;23;20171;-88
2023/03/29 19:15:13;;;;;;;25.83;11.85;;;;;;;;;;6173124;23;20172;-87
2023/03/29 19:18:18;;;;;;;23.75;11.13;;;;;;;;;;6177986;23;20227;-90
2023/03/29 19:21:23;;;;;;;25.42;11.05;;;;;;;;;;6177867;23;20179;-89
2023/03/29 19:24:30;;;;;;;21.52;10.70;;;;;;;;;;6177078;23;20215;-90
2023/03/29 19:27:36;;;;;;;24.38;11.82;;;;;;;;;;6179275;23;20637;-89
2023/03/29 19:30:41;;;;;;;28.38;12.30;;;;;;;;;;6177619;23;20220;-88
2023/03/29 19:33:47;;;;;;;25.10;10.43;;;;;;;;;;6180162;23;20171;-87
2023/03/29 19:36:57;;;;;;;20.73;10.18;;;;;;;;;;6179896;23;20472;-90
2023/03/29 19:40:05;;;;;;;20.58;10.00;;;;;;;;;;6178501;23;20274;-90
2023/03/29 19:43:15;;;;;;;17.83;8.52;;;;;;;;;;6179541;23;20214;-88
2023/03/29 19:46:21;;;;;;;17.70;8.93;;;;;;;;;;6194750;23;20196;-89
2023/03/29 19:49:26;;;;;;;20.58;9.05;;;;;;;;;;6180145;23;20219;-88
2023/03/29 19:52:32;;;;;;;18.00;8.27;;;;;;;;;;6197354;23;20175;-90
2023/03/29 19:55:41;;;;;;;15.95;8.45;;;;;;;;;;6197556;23;20223;-88
2023/03/29 19:58:49;;;;;;;18.67;8.50;;;;;;;;;;6195005;23;20168;-87
2023/03/29 20:02:38;;;;;;;22.88;8.18;;;;;;;;;;6191765;23;20186;-88
2023/03/29 20:05:43;;;;;;;17.33;9.13;;;;;;;;;;6176095;23;20172;-90
2023/03/29 20:08:49;;;;;;;15.60;8.27;;;;;;;;;;6195501;23;20282;-87
2023/03/29 20:11:58;;;;;;;19.63;9.07;;;;;;;;;;6193492;23;20175;-91
2023/03/29 20:15:04;;;;;;;19.27;8.63;;;;;;;;;;6171667;23;20231;-89
2023/03/29 20:18:13;;;;;;;20.10;7.88;;;;;;;;;;6189744;23;20198;-91
2023/03/29 20:21:20;;;;;;;21.63;9.48;;;;;;;;;;6189924;23;20218;-88
2023/03/29 20:24:26;;;;;;;17.77;9.40;;;;;;;;;;6171971;23;20501;-88
2023/03/29 20:27:32;;;;;;;19.45;8.75;;;;;;;;;;6189702;23;20279;-92
2023/03/29 20:30:38;;;;;;;20.17;9.13;;;;;;;;;;6190197;23;20242;-90
2023/03/29 20:33:43;;;;;;;17.50;9.00;;;;;;;;;;6173162;23;20168;-89
2023/03/29 20:36:48;;;;;;;21.35;9.45;;;;;;;;;;6189105;23;20492;-88
2023/03/29 20:39:55;;;;;;;20.35;9.57;;;;;;;;;;6191138;23;20172;-88
2023/03/29 20:43:01;;;;;;;18.70;8.75;;;;;;;;;;6193701;23;20199;-87
2023/03/29 20:46:12;;;;;;;18.13;8.77;;;;;;;;;;6188166;23;20217;-88
2023/03/29 20:49:18;;;;;;;16.45;8.60;;;;;;;;;;6188967;23;20611;-89
2023/03/29 20:52:23;;;;;;;20.48;9.27;;;;;;;;;;6191701;23;20257;-88
2023/03/29 20:55:29;;;;;;;17.23;8.70;;;;;;;;;;6192617;23;20164;-89
2023/03/29 20:58:40;;;;;;;21.30;9.27;;;;;;;;;;6191148;23;20168;-89
2023/03/29 21:06:01;;;;;;;25.23;10.25;;;;;;;;;;6191328;23;20155;-89
2023/03/29 21:09:06;;;;;;;22.45;10.43;;;;;;;;;;6190069;23;20183;-89
2023/03/29 21:12:11;;;;;;;21.02;10.00;;;;;;;;;;6173461;23;20197;-88
2023/03/29 21:15:18;;;;;;;22.58;10.65;;;;;;;;;;6174682;23;20164;-88
2023/03/29 21:18:23;;;;;;;22.10;10.20;;;;;;;;;;6174469;23;20233;-89
2023/03/29 21:21:34;;;;;;;18.67;10.18;;;;;;;;;;6173128;23;20167;-90
2023/03/29 21:24:39;;;;;;;24.15;10.70;;;;;;;;;;6190833;23;20247;-89
2023/03/29 21:27:45;;;;;;;22.05;11.45;;;;;;;;;;6174877;23;20164;-88
2023/03/29 21:30:52;;;;;;;19.35;9.88;;;;;;;;;;6175095;23;20218;-89
2023/03/29 21:33:57;;;;;;;24.17;11.65;;;;;;;;;;6193753;23;20239;-89
2023/03/29 21:37:02;;;;;;;24.45;11.80;;;;;;;;;;6193159;23;20664;-90
2023/03/29 21:40:09;;;;;;;21.85;10.75;;;;;;;;;;6175616;23;20239;-90
2023/03/29 21:43:14;;;;;;;20.98;10.77;;;;;;;;;;6174410;23;20172;-88
2023/03/29 21:46:21;;;;;;;21.60;10.93;;;;;;;;;;6174882;23;20192;-88
2023/03/29 21:49:26;;;;;;;18.38;9.65;;;;;;;;;;6175570;23;20168;-89
2023/03/29 21:52:30;;;;;;;23.10;11.05;;;;;;;;;;6194132;23;20191;-89
2023/03/29 21:55:36;;;;;;;22.00;11.18;;;;;;;;;;6175755;23;20179;-89
2023/03/29 21:58:41;;;;;;;22.10;11.35;;;;;;;;;;6173380;23;20171;-89
2023/03/29 22:02:12;;;;;;;23.13;12.23;;;;;;;;;;6171269;23;20155;-90
2023/03/29 22:05:18;;;;;;;27.25;10.80;;;;;;;;;;6174581;23;20172;-89
2023/03/29 22:08:25;;;;;;;27.42;11.52;;;;;;;;;;6192052;23;20182;-89
2023/03/29 22:11:31;;;;;;;22.80;10.82;;;;;;;;;;6173166;23;20196;-89
2023/03/29 22:14:36;;;;;;;19.83;9.88;;;;;;;;;;6174000;23;20160;-89
2023/03/29 22:17:42;;;;;;;25.70;10.60;;;;;;;;;;6192364;23;20169;-89
2023/03/29 22:20:49;;;;;;;21.05;10.20;;;;;;;;;;6174270;23;20214;-90
2023/03/29 22:23:57;;;;;;;19.20;9.90;;;;;;;;;;6174419;23;20188;-90
2023/03/29 22:27:02;;;;;;;20.50;10.20;;;;;;;;;;6192605;23;20620;-90
2023/03/29 22:30:08;;;;;;;22.40;10.30;;;;;;;;;;6174400;23;20274;-90
2023/03/29 22:33:13;;;;;;;22.00;10.67;;;;;;;;;;6174204;23;20171;-90
2023/03/29 22:36:20;;;;;;;25.70;10.95;;;;;;;;;;6174046;23;20611;-89
2023/03/29 22:39:27;;;;;;;23.20;10.27;;;;;;;;;;6174451;23;20176;-90
2023/03/29 22:42:32;;;;;;;19.45;10.40;;;;;;;;;;6174259;23;20168;-89
2023/03/29 22:45:37;;;;;;;25.07;10.80;;;;;;;;;;6191052;23;20175;-88
2023/03/29 22:48:42;;;;;;;19.50;10.07;;;;;;;;;;6173493;23;20172;-89
2023/03/29 22:51:47;;;;;;;20.63;10.83;;;;;;;;;;6174181;23;20195;-90
2023/03/29 22:54:54;;;;;;;20.00;10.40;;;;;;;;;;6192755;23;20172;-90
2023/03/29 22:57:59;;;;;;;19.50;10.23;;;;;;;;;;6174572;23;20168;-89
2023/03/29 23:01:05;;;;;;;23.27;11.10;;;;;;;;;;6176259;23;20168;-89
2023/03/29 23:04:18;;;;;;;21.97;11.37;;;;;;;;;;6175069;23;20168;-89
2023/03/29 23:07:22;;;;;;;21.23;10.70;;;;;;;;;;6172207;23;20179;-88
2023/03/29 23:10:29;;;;;;;25.23;10.73;;;;;;;;;;6172122;23;20195;-90
2023/03/29 23:13:34;;;;;;;22.03;11.47;;;;;;;;;;6172432;23;20172;-89
2023/03/29 23:16:41;;;;;;;20.37;10.60;;;;;;;;;;6171623;23;20168;-89
2023/03/29 23:19:46;;;;;;;24.60;10.43;;;;;;;;;;6189269;23;20175;-87
2023/03/29 23:22:54;;;;;;;17.77;9.97;;;;;;;;;;6173268;23;20172;-89
2023/03/29 23:26:02;;;;;;;22.80;10.60;;;;;;;;;;6191678;23;20202;-89
2023/03/29 23:29:07;;;;;;;20.75;11.10;;;;;;;;;;6173466;23;20279;-88
2023/03/29 23:32:12;;;;;;;21.67;10.88;;;;;;;;;;6189397;23;20190;-88
2023/03/29 23:35:18;;;;;;;21.80;10.43;;;;;;;;;;6173018;23;20188;-90
2023/03/29 23:38:23;;;;;;;22.27;10.80;;;;;;;;;;6174032;23;20203;-88
2023/03/29 23:41:29;;;;;;;21.73;10.43;;;;;;;;;;6173044;23;20175;-90